Elliottsburg, Pennsylvania
Current Conditions -  °F | °C
As of 2:56 AM on Friday 19 Dec 2014 (Local Time) from KCXY Reporting Station
Overcast Overcast  
Wind Chill: 26°   Ceiling: 2800
Heat Index: 34°   Visibility: 10mi
Dew Point: 24°   Wind: 10mph
Humidity: 67%   Direction: 280°W
Pressure: 30.07"   Gusts: NA
Location:  40.39°N, 77.29°W
Report Text: KCXY 190756Z AUTO 28009KT 10SM OVC028 01/M04 A3007 RMK AO2 SLP188 T00111044
Loading
Personal Weather Stations






























Interactive Weather Map New forecast layout! Learn more

10-Day Weather Forecast

Advertisements
Track Severe Weather on mobile